Time;durP1;ratioP1;P1;durP2;ratioP2;P2;SDS_P1;SDS_P2;PMS_P1;PMS_P2;Temp;Humidity;BMP_temperature;BMP_pressure;BME280_temperature;BME280_humidity;BME280_pressure;Samples;Min_cycle;Max_cycle;Signal;HPM_P1;HPM_P2
2023/08/14 00:01:57;;;;;;;2.47;1.60;;;27.40;59.00;;;;;;5078552;28;20025;-65
2023/08/14 00:04:22;;;;;;;2.42;1.60;;;27.50;59.00;;;;;;5081936;28;20044;-65
2023/08/14 00:06:48;;;;;;;2.35;1.60;;;27.50;58.90;;;;;;5081838;28;20028;-65
2023/08/14 00:09:13;;;;;;;2.63;1.63;;;27.50;58.90;;;;;;5079752;28;20373;-65
2023/08/14 00:11:39;;;;;;;1.83;1.40;;;27.50;58.90;;;;;;5079918;28;20103;-66
2023/08/14 00:14:04;;;;;;;2.38;1.60;;;27.50;58.90;;;;;;5081531;28;20032;-65
2023/08/14 00:16:30;;;;;;;2.10;1.50;;;27.50;58.80;;;;;;5079902;28;20449;-65
2023/08/14 00:18:56;;;;;;;2.08;1.42;;;27.50;58.80;;;;;;5080502;28;20024;-65
2023/08/14 00:21:23;;;;;;;2.35;1.55;;;27.50;58.80;;;;;;5080316;28;20028;-65
2023/08/14 00:23:49;;;;;;;2.10;1.58;;;27.50;58.80;;;;;;5081226;28;20031;-65
2023/08/14 00:26:15;;;;;;;3.05;1.70;;;27.50;58.70;;;;;;5079035;28;20032;-65
2023/08/14 00:28:40;;;;;;;2.60;1.70;;;27.50;58.70;;;;;;5082169;28;20455;-64
2023/08/14 00:31:06;;;;;;;2.10;1.40;;;27.50;58.70;;;;;;5077341;28;20044;-62
2023/08/14 00:33:32;;;;;;;2.00;1.60;;;27.50;58.70;;;;;;5079492;28;20174;-62
2023/08/14 00:35:58;;;;;;;3.40;1.55;;;27.50;58.60;;;;;;5078301;28;20524;-62
2023/08/14 00:38:24;;;;;;;2.08;1.50;;;27.50;58.60;;;;;;5081324;28;20100;-62
2023/08/14 00:40:52;;;;;;;2.03;1.45;;;27.50;58.60;;;;;;5079216;28;20107;-68
2023/08/14 00:43:21;;;;;;;1.67;1.23;;;27.50;58.60;;;;;;5078284;28;20028;-68
2023/08/14 00:45:47;;;;;;;2.40;1.70;;;27.50;58.60;;;;;;5077436;28;20519;-67
2023/08/14 00:48:14;;;;;;;2.80;1.50;;;27.50;58.60;;;;;;5078674;28;20116;-67
2023/08/14 00:50:40;;;;;;;2.53;1.67;;;27.50;58.50;;;;;;5079471;28;20028;-69
2023/08/14 00:53:06;;;;;;;2.08;1.40;;;27.40;58.50;;;;;;5079856;28;20025;-69
2023/08/14 00:55:32;;;;;;;2.05;1.60;;;27.40;58.40;;;;;;5079761;28;20024;-69
2023/08/14 00:57:58;;;;;;;2.47;1.50;;;27.50;58.40;;;;;;5079716;28;20059;-68
2023/08/14 01:00:27;;;;;;;2.25;1.40;;;27.50;58.50;;;;;;5079893;28;20092;-68
2023/08/14 01:02:53;;;;;;;2.58;1.73;;;27.50;58.40;;;;;;5080123;28;20464;-69
2023/08/14 01:05:19;;;;;;;3.42;1.52;;;27.40;58.40;;;;;;5079233;28;20071;-69
2023/08/14 01:07:44;;;;;;;2.20;1.45;;;27.40;58.30;;;;;;5081939;28;20556;-68
2023/08/14 01:10:11;;;;;;;1.70;1.33;;;27.40;58.30;;;;;;5080269;28;20520;-69
2023/08/14 01:13:11;;;;;;;1.98;1.40;;;27.40;58.30;;;;;;5080915;28;20082;-69
2023/08/14 01:15:43;;;;;;;2.25;1.50;;;27.40;58.30;;;;;;5076548;28;20032;-68
2023/08/14 01:18:11;;;;;;;1.88;1.30;;;27.40;58.30;;;;;;5080824;28;20499;-70
2023/08/14 01:20:38;;;;;;;2.00;1.60;;;27.50;58.40;;;;;;5079331;28;20119;-70
2023/08/14 01:23:03;;;;;;;1.85;1.35;;;27.40;58.30;;;;;;5080441;28;20032;-69
2023/08/14 01:25:33;;;;;;;2.15;1.63;;;27.40;58.30;;;;;;5079873;28;20375;-69
2023/08/14 01:28:00;;;;;;;2.17;1.55;;;27.40;58.30;;;;;;5079798;28;20559;-69
2023/08/14 01:30:26;;;;;;;2.63;1.38;;;27.40;58.20;;;;;;5077606;28;20116;-69
2023/08/14 01:32:52;;;;;;;2.17;1.50;;;27.40;58.20;;;;;;5078704;28;20071;-70
2023/08/14 01:35:20;;;;;;;2.30;1.60;;;27.40;58.20;;;;;;5079510;28;20028;-69
2023/08/14 01:37:55;;;;;;;2.10;1.42;;;27.40;58.20;;;;;;5079483;28;20075;-70
2023/08/14 01:40:32;;;;;;;2.15;1.50;;;27.40;58.20;;;;;;5078922;28;20036;-68
2023/08/14 01:43:08;;;;;;;2.35;1.70;;;27.40;58.10;;;;;;5078768;28;20024;-69
2023/08/14 01:45:35;;;;;;;1.90;1.40;;;27.40;58.10;;;;;;5077522;28;20035;-68
2023/08/14 01:48:02;;;;;;;2.17;1.50;;;27.40;58.10;;;;;;5080027;28;20035;-68
2023/08/14 01:50:29;;;;;;;1.65;1.40;;;27.40;58.10;;;;;;5080651;28;20025;-65
2023/08/14 01:52:56;;;;;;;1.88;1.40;;;27.40;58.10;;;;;;5078133;28;20020;-66
2023/08/14 01:55:24;;;;;;;2.30;1.40;;;27.40;58.00;;;;;;5077613;28;20479;-66
2023/08/14 01:57:50;;;;;;;1.90;1.25;;;27.40;58.10;;;;;;5078994;28;20024;-65
2023/08/14 02:00:15;;;;;;;2.25;1.50;;;27.40;58.00;;;;;;5079847;28;20127;-65
2023/08/14 02:02:41;;;;;;;2.15;1.45;;;27.40;58.00;;;;;;5077861;28;20491;-65
2023/08/14 02:05:07;;;;;;;2.05;1.40;;;27.40;58.00;;;;;;5079050;28;20032;-65
2023/08/14 02:07:32;;;;;;;1.98;1.40;;;27.40;58.00;;;;;;5078000;28;20502;-64
2023/08/14 02:09:58;;;;;;;2.08;1.60;;;27.40;58.00;;;;;;5079018;28;20028;-65
2023/08/14 02:12:23;;;;;;;1.90;1.33;;;27.40;58.00;;;;;;5076764;28;20487;-65
2023/08/14 02:14:49;;;;;;;3.08;1.88;;;27.40;58.00;;;;;;5077559;28;20116;-65
2023/08/14 02:17:15;;;;;;;1.75;1.27;;;27.40;57.90;;;;;;5077733;28;20123;-66
2023/08/14 02:19:40;;;;;;;2.17;1.45;;;27.40;57.90;;;;;;5077705;28;20051;-65
2023/08/14 02:22:06;;;;;;;1.73;1.20;;;27.40;57.90;;;;;;5077943;28;20575;-64
2023/08/14 02:24:31;;;;;;;2.28;1.50;;;27.40;57.90;;;;;;5076056;28;20107;-65
2023/08/14 02:26:57;;;;;;;1.48;1.35;;;27.40;57.90;;;;;;5077023;28;20554;-65
2023/08/14 02:29:23;;;;;;;2.60;1.48;;;27.40;57.90;;;;;;5076369;28;20028;-66
2023/08/14 02:31:50;;;;;;;2.10;1.55;;;27.40;57.90;;;;;;5076829;28;20464;-66
2023/08/14 02:34:49;;;;;;;2.10;1.40;;;27.40;57.80;;;;;;5076181;28;20433;-65
2023/08/14 02:37:16;;;;;;;;;;;27.40;57.80;;;;;;5069962;28;20037;-64
2023/08/14 02:39:42;;;;;;;1.85;1.27;;;27.40;57.80;;;;;;5078390;28;19908;-65
2023/08/14 02:42:08;;;;;;;2.28;1.30;;;27.40;57.80;;;;;;5079556;28;20043;-65
2023/08/14 02:44:34;;;;;;;2.22;1.40;;;27.40;57.80;;;;;;5077412;28;20029;-64
2023/08/14 02:47:01;;;;;;;2.20;1.45;;;27.40;57.80;;;;;;5077352;28;20116;-65
2023/08/14 02:49:27;;;;;;;2.20;1.30;;;27.40;57.70;;;;;;5079236;28;20071;-65
2023/08/14 02:51:53;;;;;;;2.38;1.40;;;27.40;57.70;;;;;;5077397;28;20024;-65
2023/08/14 02:54:18;;;;;;;1.73;1.30;;;27.40;57.70;;;;;;5078120;28;20081;-66
2023/08/14 02:56:44;;;;;;;2.25;1.38;;;27.40;57.70;;;;;;5079705;28;20456;-65
2023/08/14 02:59:10;;;;;;;2.20;1.55;;;27.40;57.70;;;;;;5078045;28;20028;-65
2023/08/14 03:01:36;;;;;;;1.50;1.23;;;27.40;57.70;;;;;;5083197;28;20515;-68
2023/08/14 03:04:01;;;;;;;1.80;1.30;;;27.40;57.70;;;;;;5081051;28;20029;-68
2023/08/14 03:06:29;;;;;;;1.70;1.30;;;27.40;57.70;;;;;;5076651;28;20052;-68
2023/08/14 03:08:55;;;;;;;1.65;1.30;;;27.40;57.70;;;;;;5081662;28;20432;-68
2023/08/14 03:11:21;;;;;;;1.70;1.23;;;27.30;57.60;;;;;;5081495;28;20361;-69
2023/08/14 03:13:47;;;;;;;1.67;1.40;;;27.30;57.60;;;;;;5084786;28;20028;-69
2023/08/14 03:16:12;;;;;;;1.88;1.38;;;27.30;57.60;;;;;;5080792;28;20024;-69
2023/08/14 03:18:38;;;;;;;1.75;1.25;;;27.30;57.60;;;;;;5081108;28;20055;-71
2023/08/14 03:21:04;;;;;;;1.80;1.40;;;27.40;57.70;;;;;;5080473;28;20035;-68
2023/08/14 03:23:29;;;;;;;1.70;1.33;;;27.30;57.60;;;;;;5080901;28;20075;-69
2023/08/14 03:25:55;;;;;;;1.67;1.30;;;27.30;57.50;;;;;;5082711;28;20039;-69
2023/08/14 03:28:21;;;;;;;2.03;1.38;;;27.30;57.50;;;;;;5082006;28;20439;-71
2023/08/14 03:30:50;;;;;;;1.90;1.40;;;27.30;57.50;;;;;;5080546;28;20383;-71
2023/08/14 03:33:15;;;;;;;2.05;1.40;;;27.30;57.50;;;;;;5080250;28;20464;-69
2023/08/14 03:35:41;;;;;;;1.35;1.10;;;27.30;57.50;;;;;;5081764;28;20027;-68
2023/08/14 03:38:07;;;;;;;1.83;1.40;;;27.30;57.50;;;;;;5082406;28;20032;-70
2023/08/14 03:40:32;;;;;;;1.95;1.38;;;27.30;57.50;;;;;;5081870;28;20169;-69
2023/08/14 03:42:58;;;;;;;1.73;1.40;;;27.30;57.50;;;;;;5080089;28;20103;-69
2023/08/14 03:45:24;;;;;;;1.83;1.38;;;27.30;57.50;;;;;;5080460;28;20341;-68
2023/08/14 03:47:49;;;;;;;1.75;1.33;;;27.30;57.50;;;;;;5080492;28;20479;-69
2023/08/14 03:50:15;;;;;;;1.90;1.40;;;27.30;57.50;;;;;;5082581;28;20032;-69
2023/08/14 03:52:41;;;;;;;2.70;1.30;;;27.30;57.50;;;;;;5080323;28;20016;-69
2023/08/14 03:55:08;;;;;;;1.83;1.40;;;27.30;57.40;;;;;;5081968;28;20094;-70
2023/08/14 03:57:33;;;;;;;1.83;1.30;;;27.30;57.50;;;;;;5082423;28;20033;-70
2023/08/14 03:59:59;;;;;;;1.83;1.30;;;27.30;57.40;;;;;;5078700;28;20031;-71
2023/08/14 04:02:25;;;;;;;1.90;1.50;;;27.30;57.40;;;;;;5080541;28;20093;-68
2023/08/14 04:04:50;;;;;;;1.60;1.30;;;27.30;57.40;;;;;;5079812;28;20143;-70
2023/08/14 04:07:16;;;;;;;1.98;1.35;;;27.30;57.40;;;;;;5080119;28;20677;-69
2023/08/14 04:09:42;;;;;;;1.70;1.27;;;27.30;57.40;;;;;;5081076;28;20025;-69
2023/08/14 04:12:09;;;;;;;1.77;1.38;;;27.30;57.40;;;;;;5080491;28;20062;-69
2023/08/14 04:14:34;;;;;;;1.77;1.35;;;27.30;57.40;;;;;;5079515;28;20020;-69
2023/08/14 04:17:00;;;;;;;1.67;1.13;;;27.30;57.40;;;;;;5079761;28;20040;-70
2023/08/14 04:19:27;;;;;;;1.63;1.20;;;27.30;57.40;;;;;;5078210;28;20448;-68
2023/08/14 04:21:52;;;;;;;1.88;1.30;;;27.30;57.40;;;;;;5078333;28;20098;-62
2023/08/14 04:24:18;;;;;;;1.60;1.30;;;27.30;57.30;;;;;;5079457;28;20468;-63
2023/08/14 04:26:43;;;;;;;1.52;1.30;;;27.30;57.30;;;;;;5078439;28;20579;-63
2023/08/14 04:29:10;;;;;;;2.00;1.48;;;27.30;57.30;;;;;;5079931;28;20479;-64
2023/08/14 04:31:40;;;;;;;1.63;1.30;;;27.30;57.30;;;;;;5060097;28;20040;-63
2023/08/14 04:34:06;;;;;;;2.15;1.40;;;27.30;57.30;;;;;;5079717;28;20104;-61
2023/08/14 04:36:33;;;;;;;1.77;1.30;;;27.30;57.30;;;;;;5079481;28;20026;-63
2023/08/14 04:38:59;;;;;;;1.75;1.38;;;27.30;57.30;;;;;;5080884;28;20059;-61
2023/08/14 04:41:26;;;;;;;1.60;1.15;;;27.30;57.30;;;;;;5079268;28;20044;-63
2023/08/14 04:43:52;;;;;;;2.35;1.50;;;27.30;57.30;;;;;;5063164;28;20036;-61
2023/08/14 04:46:32;;;;;;;1.55;1.20;;;27.30;57.30;;;;;;5079620;28;20036;-63
2023/08/14 04:48:59;;;;;;;1.80;1.25;;;27.20;57.20;;;;;;5077124;28;20062;-64
2023/08/14 04:51:25;;;;;;;2.30;1.40;;;27.30;57.30;;;;;;5078323;28;20138;-63
2023/08/14 04:53:51;;;;;;;1.83;1.35;;;27.20;57.20;;;;;;5080632;28;20035;-62
2023/08/14 04:56:16;;;;;;;1.58;1.20;;;27.20;57.20;;;;;;5079547;28;20163;-62
2023/08/14 04:58:43;;;;;;;1.70;1.20;;;27.20;57.20;;;;;;5078945;28;20411;-63
2023/08/14 05:01:09;;;;;;;1.42;1.10;;;27.20;57.20;;;;;;5078438;28;20452;-63
2023/08/14 05:03:34;;;;;;;2.20;1.40;;;27.20;57.10;;;;;;5080193;28;20107;-64
2023/08/14 05:06:00;;;;;;;1.70;1.10;;;27.30;57.20;;;;;;5062169;28;20040;-63
2023/08/14 05:08:25;;;;;;;1.80;1.30;;;27.20;57.10;;;;;;5078489;28;20108;-64
2023/08/14 05:10:52;;;;;;;1.80;1.30;;;27.20;57.70;;;;;;5078903;28;20028;-64
2023/08/14 05:13:18;;;;;;;2.10;1.35;;;27.20;57.10;;;;;;5080940;28;20059;-61
2023/08/14 05:15:46;;;;;;;1.90;1.30;;;27.20;57.10;;;;;;5079035;28;20539;-61
2023/08/14 05:18:12;;;;;;;1.65;1.20;;;27.30;57.20;;;;;;5077592;28;20483;-61
2023/08/14 05:20:38;;;;;;;1.55;1.30;;;27.20;57.10;;;;;;5078517;28;20028;-64
2023/08/14 05:23:04;;;;;;;1.80;1.20;;;27.20;57.10;;;;;;5078828;28;20487;-64
2023/08/14 05:25:29;;;;;;;2.00;1.50;;;27.20;57.20;;;;;;5079400;28;20032;-65
2023/08/14 05:27:55;;;;;;;1.80;1.30;;;27.30;57.20;;;;;;5080101;28;20036;-65
2023/08/14 05:30:21;;;;;;;1.60;1.10;;;27.20;57.10;;;;;;5078076;28;20103;-64
2023/08/14 05:32:47;;;;;;;1.70;1.30;;;27.20;57.10;;;;;;5078828;28;20507;-64
2023/08/14 05:35:13;;;;;;;1.58;1.17;;;27.20;57.60;;;;;;5079297;28;20035;-65
2023/08/14 05:37:42;;;;;;;1.60;1.10;;;27.20;57.10;;;;;;5081848;28;20047;-65
2023/08/14 05:40:08;;;;;;;2.00;1.35;;;27.30;57.10;;;;;;5080510;28;20028;-65
2023/08/14 05:42:34;;;;;;;1.65;1.30;;;27.20;57.00;;;;;;5079395;28;20062;-65
2023/08/14 05:44:59;;;;;;;1.77;1.10;;;27.20;57.00;;;;;;5078842;28;20028;-65
2023/08/14 05:47:25;;;;;;;1.67;1.13;;;27.20;57.10;;;;;;5077790;28;20027;-64
2023/08/14 05:49:50;;;;;;;1.80;1.30;;;27.30;57.10;;;;;;5080106;28;20036;-64
2023/08/14 05:52:16;;;;;;;1.80;1.20;;;27.20;57.00;;;;;;5080417;28;20079;-64
2023/08/14 05:54:41;;;;;;;1.80;1.30;;;27.20;57.00;;;;;;5079528;28;20392;-64
2023/08/14 05:57:07;;;;;;;1.35;1.15;;;27.20;57.00;;;;;;5079752;28;20028;-64
2023/08/14 05:59:33;;;;;;;1.38;1.20;;;27.20;57.00;;;;;;5078744;28;20078;-65
2023/08/14 06:01:59;;;;;;;1.88;1.30;;;27.20;57.00;;;;;;5076946;28;20100;-66
2023/08/14 06:04:26;;;;;;;1.45;1.10;;;27.20;57.00;;;;;;5077254;28;20108;-66
2023/08/14 06:06:51;;;;;;;1.73;1.23;;;27.20;57.00;;;;;;5078879;28;20074;-65
2023/08/14 06:09:17;;;;;;;1.60;1.17;;;27.20;57.00;;;;;;5077829;28;20029;-65
2023/08/14 06:11:43;;;;;;;2.28;1.50;;;27.20;57.00;;;;;;5076858;28;20434;-65
2023/08/14 06:14:09;;;;;;;1.55;1.33;;;27.20;57.00;;;;;;5080846;28;20036;-65
2023/08/14 06:16:34;;;;;;;1.40;1.10;;;27.20;57.00;;;;;;5079322;28;20464;-66
2023/08/14 06:19:00;;;;;;;2.20;1.25;;;27.20;57.00;;;;;;5077538;28;20047;-65
2023/08/14 06:21:25;;;;;;;1.80;1.27;;;27.20;57.00;;;;;;5079988;28;20115;-66
2023/08/14 06:23:51;;;;;;;1.52;1.20;;;27.20;56.90;;;;;;5076856;28;20024;-66
2023/08/14 06:26:17;;;;;;;1.33;1.20;;;27.20;57.00;;;;;;5077021;28;20039;-65
2023/08/14 06:28:42;;;;;;;1.77;1.30;;;27.20;57.00;;;;;;5076180;28;20028;-65
2023/08/14 06:31:09;;;;;;;1.65;1.20;;;27.10;56.90;;;;;;5077631;28;20029;-69
2023/08/14 06:33:34;;;;;;;1.50;1.17;;;27.20;57.00;;;;;;5076371;28;20012;-68
2023/08/14 06:36:00;;;;;;;1.48;1.10;;;27.20;57.00;;;;;;5076360;28;20409;-69
2023/08/14 06:38:26;;;;;;;2.20;1.65;;;27.20;57.00;;;;;;5076176;28;20089;-68
2023/08/14 06:40:51;;;;;;;1.70;1.20;;;27.20;57.30;;;;;;5077470;28;20032;-70
2023/08/14 06:43:17;;;;;;;1.73;1.20;;;27.20;56.90;;;;;;5077764;28;20032;-70
2023/08/14 06:45:45;;;;;;;1.70;1.25;;;27.20;57.50;;;;;;5078446;28;20032;-70
2023/08/14 06:48:10;;;;;;;2.08;1.42;;;27.20;57.00;;;;;;5077926;28;20435;-70
2023/08/14 06:50:36;;;;;;;2.22;1.35;;;27.20;57.00;;;;;;5076562;28;20031;-70
2023/08/14 06:53:02;;;;;;;1.85;1.38;;;27.10;56.90;;;;;;5077841;28;20043;-71
2023/08/14 06:55:27;;;;;;;1.75;1.20;;;27.20;57.00;;;;;;5077180;28;20032;-70
2023/08/14 06:57:53;;;;;;;2.00;1.27;;;27.10;56.90;;;;;;5076998;28;20020;-70
2023/08/14 07:00:18;;;;;;;1.50;1.10;;;27.10;57.00;;;;;;5078986;28;20095;-70
2023/08/14 07:02:46;;;;;;;2.00;1.27;;;27.10;57.00;;;;;;5077647;28;20461;-70
2023/08/14 07:05:12;;;;;;;1.85;1.20;;;27.20;57.00;;;;;;5075673;28;20460;-70
2023/08/14 07:07:38;;;;;;;1.40;1.20;;;27.10;57.00;;;;;;5073785;28;20043;-71
2023/08/14 07:10:04;;;;;;;1.80;1.10;;;27.20;57.00;;;;;;5076316;28;20020;-70
2023/08/14 07:12:29;;;;;;;2.10;1.38;;;27.10;57.00;;;;;;5077032;28;20498;-69
2023/08/14 07:14:55;;;;;;;1.70;1.23;;;27.20;57.10;;;;;;5075859;28;20480;-71
2023/08/14 07:17:21;;;;;;;1.83;1.20;;;27.20;57.00;;;;;;5077484;28;20035;-71
2023/08/14 07:19:46;;;;;;;2.15;1.10;;;27.20;57.00;;;;;;5076453;28;20040;-71
2023/08/14 07:22:12;;;;;;;1.80;1.40;;;27.10;57.50;;;;;;5077775;28;20081;-71
2023/08/14 07:24:38;;;;;;;2.05;1.40;;;27.10;57.00;;;;;;5078123;28;20080;-71
2023/08/14 07:27:04;;;;;;;1.92;1.38;;;27.10;57.00;;;;;;5075473;28;20078;-71
2023/08/14 07:29:29;;;;;;;1.92;1.27;;;27.10;57.00;;;;;;5078038;28;20519;-70
2023/08/14 07:31:55;;;;;;;2.03;1.30;;;27.10;57.00;;;;;;5076844;28;20105;-71
2023/08/14 07:34:21;;;;;;;1.92;1.40;;;27.20;57.10;;;;;;5076488;28;20032;-70
2023/08/14 07:36:46;;;;;;;1.30;1.13;;;27.20;57.10;;;;;;5059333;28;20028;-71
2023/08/14 07:39:12;;;;;;;1.80;1.20;;;27.20;57.10;;;;;;5075711;28;20067;-71
2023/08/14 07:41:37;;;;;;;1.80;1.27;;;27.10;57.00;;;;;;5078132;28;20084;-64
2023/08/14 07:44:03;;;;;;;1.98;1.40;;;27.10;57.00;;;;;;5077931;28;20024;-64
2023/08/14 07:46:29;;;;;;;2.17;1.45;;;27.10;57.10;;;;;;5078837;28;20036;-64
2023/08/14 07:48:55;;;;;;;2.33;1.40;;;27.20;57.10;;;;;;5080291;28;20894;-64
2023/08/14 07:51:20;;;;;;;2.15;1.40;;;27.10;57.10;;;;;;5079489;28;20032;-65
2023/08/14 07:53:46;;;;;;;1.90;1.33;;;27.10;57.10;;;;;;5079525;28;20032;-66
2023/08/14 07:56:11;;;;;;;1.90;1.20;;;27.20;57.20;;;;;;5080231;28;20073;-65
2023/08/14 07:58:39;;;;;;;1.60;1.30;;;27.20;57.30;;;;;;5079810;28;20392;-65
2023/08/14 08:01:05;;;;;;;1.55;1.30;;;27.10;57.20;;;;;;5079082;28;20112;-66
2023/08/14 08:03:31;;;;;;;1.75;1.38;;;27.20;57.30;;;;;;5079037;28;20059;-66
2023/08/14 08:05:56;;;;;;;1.85;1.50;;;27.10;57.20;;;;;;5077510;28;20132;-65
2023/08/14 08:08:22;;;;;;;1.83;1.20;;;27.20;57.30;;;;;;5079948;28;20039;-65
2023/08/14 08:10:47;;;;;;;2.08;1.48;;;27.10;57.20;;;;;;5082695;28;20548;-65
2023/08/14 08:13:13;;;;;;;1.50;1.20;;;27.20;57.20;;;;;;5080533;28;20392;-66
2023/08/14 08:15:39;;;;;;;1.83;1.30;;;27.10;57.20;;;;;;5080204;28;20476;-65
2023/08/14 08:18:04;;;;;;;1.70;1.15;;;27.20;57.20;;;;;;5080938;28;20031;-65
2023/08/14 08:20:30;;;;;;;2.00;1.40;;;27.10;57.10;;;;;;5080103;28;20488;-65
2023/08/14 08:22:55;;;;;;;1.92;1.17;;;27.10;57.10;;;;;;5080951;28;20442;-65
2023/08/14 08:25:21;;;;;;;1.60;1.30;;;27.10;57.10;;;;;;5081410;28;20511;-66
2023/08/14 08:27:47;;;;;;;1.65;1.20;;;27.10;57.10;;;;;;5077965;28;20391;-65
2023/08/14 08:30:13;;;;;;;1.65;1.15;;;27.20;57.10;;;;;;5080316;28;20024;-66
2023/08/14 08:32:39;;;;;;;1.90;1.40;;;27.20;57.10;;;;;;5080188;28;20027;-65
2023/08/14 08:35:04;;;;;;;1.55;1.10;;;27.20;57.10;;;;;;5077803;28;20066;-66
2023/08/14 08:37:30;;;;;;;1.48;1.20;;;27.20;57.10;;;;;;5080716;28;20036;-66
2023/08/14 08:39:55;;;;;;;1.70;1.38;;;27.10;57.10;;;;;;5080155;28;20110;-65
2023/08/14 08:42:22;;;;;;;1.65;1.20;;;27.10;57.00;;;;;;5079164;28;20027;-66
2023/08/14 08:44:50;;;;;;;1.65;1.20;;;27.10;57.00;;;;;;5081422;28;20031;-66
2023/08/14 08:47:22;;;;;;;1.83;1.30;;;27.10;57.00;;;;;;5065353;28;20032;-65
2023/08/14 08:49:48;;;;;;;1.98;1.20;;;27.20;57.10;;;;;;5078299;28;20289;-66
2023/08/14 08:52:14;;;;;;;1.50;1.20;;;27.10;57.00;;;;;;5079387;28;20480;-70
2023/08/14 08:54:40;;;;;;;1.63;1.20;;;27.10;57.00;;;;;;5080159;28;20453;-69
2023/08/14 08:57:06;;;;;;;2.25;1.30;;;27.10;57.00;;;;;;5080425;28;20486;-71
2023/08/14 08:59:33;;;;;;;1.77;1.27;;;27.20;57.10;;;;;;5079164;28;20080;-70
2023/08/14 09:01:58;;;;;;;1.83;1.40;;;27.10;57.50;;;;;;5062493;28;20028;-71
2023/08/14 09:04:24;;;;;;;1.67;1.45;;;27.10;57.00;;;;;;5076931;28;20090;-71
2023/08/14 09:06:50;;;;;;;2.60;1.40;;;27.10;57.10;;;;;;5078848;28;20028;-71
2023/08/14 09:09:16;;;;;;;2.22;1.30;;;27.10;57.50;;;;;;5076334;28;20017;-71
2023/08/14 09:11:42;;;;;;;1.50;1.10;;;27.10;57.00;;;;;;5079675;28;20028;-70
2023/08/14 09:14:07;;;;;;;1.90;1.35;;;27.10;57.00;;;;;;5079948;28;20407;-71
2023/08/14 09:16:33;;;;;;;2.05;1.20;;;27.10;56.90;;;;;;5079350;28;20050;-71
2023/08/14 09:19:00;;;;;;;1.58;1.10;;;27.10;56.90;;;;;;5079873;28;20467;-70
2023/08/14 09:21:29;;;;;;;1.48;1.15;;;27.10;56.90;;;;;;5078935;28;20037;-71
2023/08/14 09:23:55;;;;;;;1.83;1.20;;;27.10;57.00;;;;;;5078809;28;20028;-71
2023/08/14 09:26:22;;;;;;;1.75;1.20;;;27.20;57.10;;;;;;5079486;28;20024;-71
2023/08/14 09:28:48;;;;;;;1.50;1.20;;;27.10;57.00;;;;;;5080685;28;20032;-70
2023/08/14 09:31:14;;;;;;;1.75;1.30;;;27.20;57.10;;;;;;5079111;28;20622;-70
2023/08/14 09:33:42;;;;;;;1.80;1.30;;;27.10;57.10;;;;;;5078028;28;20036;-71
2023/08/14 09:36:08;;;;;;;1.83;1.30;;;27.10;57.10;;;;;;5078452;28;20372;-70
2023/08/14 09:38:34;;;;;;;1.23;1.10;;;27.20;57.10;;;;;;5080129;28;20035;-71
2023/08/14 09:41:01;;;;;;;2.60;1.63;;;27.10;57.10;;;;;;5078169;28;20040;-69
2023/08/14 09:43:28;;;;;;;1.88;1.30;;;27.10;57.10;;;;;;5078735;28;20527;-71
2023/08/14 09:45:56;;;;;;;1.95;1.30;;;27.10;57.60;;;;;;5079333;28;20364;-72
2023/08/14 09:48:23;;;;;;;1.55;1.20;;;27.10;57.10;;;;;;5076993;28;20479;-70
2023/08/14 09:50:52;;;;;;;1.80;1.20;;;27.10;57.10;;;;;;5059106;28;20472;-70
2023/08/14 09:53:18;;;;;;;1.45;1.20;;;27.10;57.10;;;;;;5081275;28;20039;-71
2023/08/14 09:55:44;;;;;;;1.65;1.23;;;27.10;57.10;;;;;;5076890;28;20036;-71
2023/08/14 09:58:10;;;;;;;1.83;1.30;;;27.10;57.10;;;;;;5076230;28;20031;-70
2023/08/14 10:00:37;;;;;;;1.70;1.30;;;27.10;57.10;;;;;;5079681;28;20032;-65
2023/08/14 10:03:07;;;;;;;1.80;1.25;;;27.10;57.10;;;;;;5077413;28;20058;-64
2023/08/14 10:05:33;;;;;;;1.60;1.30;;;27.10;57.10;;;;;;5060459;28;20028;-65
2023/08/14 10:08:01;;;;;;;1.77;1.27;;;27.10;57.10;;;;;;5076890;28;20032;-65
2023/08/14 10:10:31;;;;;;;1.88;1.40;;;27.10;57.10;;;;;;5079000;28;20509;-70
2023/08/14 10:13:04;;;;;;;2.00;1.45;;;27.10;57.10;;;;;;5078446;28;20036;-72
2023/08/14 10:15:38;;;;;;;1.75;1.20;;;27.10;57.10;;;;;;5079379;28;20025;-72
2023/08/14 10:18:14;;;;;;;1.63;1.30;;;27.10;57.10;;;;;;5078428;28;20178;-71
2023/08/14 10:20:43;;;;;;;1.65;1.20;;;27.20;57.20;;;;;;5078571;28;20449;-69
2023/08/14 10:23:10;;;;;;;1.48;1.10;;;27.10;57.10;;;;;;5077428;28;20475;-71
2023/08/14 10:25:38;;;;;;;1.65;1.23;;;27.10;57.10;;;;;;5077423;28;20542;-71
2023/08/14 10:28:07;;;;;;;1.83;1.33;;;27.10;57.10;;;;;;5061727;28;20499;-72
2023/08/14 10:30:35;;;;;;;1.45;1.20;;;27.10;57.10;;;;;;5079231;28;20024;-72
2023/08/14 10:33:02;;;;;;;1.60;1.27;;;27.20;57.10;;;;;;5077955;28;20361;-72
2023/08/14 10:35:28;;;;;;;1.50;1.20;;;27.10;57.10;;;;;;5076471;28;20019;-72
2023/08/14 10:37:54;;;;;;;1.33;1.20;;;27.20;57.20;;;;;;5077646;28;20024;-72
2023/08/14 10:40:24;;;;;;;1.48;1.20;;;27.10;57.20;;;;;;5077598;28;20036;-71
2023/08/14 10:42:56;;;;;;;1.63;1.20;;;27.10;57.20;;;;;;5075825;28;20186;-70
2023/08/14 10:45:27;;;;;;;1.60;1.10;;;27.10;57.30;;;;;;5062933;28;20036;-71
2023/08/14 10:47:57;;;;;;;1.48;1.20;;;27.10;57.30;;;;;;5076628;28;20618;-70
2023/08/14 10:50:25;;;;;;;1.33;1.10;;;27.20;57.30;;;;;;5075042;28;20115;-70
2023/08/14 10:52:54;;;;;;;1.40;1.05;;;27.10;57.30;;;;;;5078413;28;20021;-70
2023/08/14 10:55:41;;;;;;;1.20;1.00;;;27.20;57.40;;;;;;5075638;28;20495;-70
2023/08/14 10:58:29;;;;;;;1.35;1.00;;;27.10;57.30;;;;;;5079988;28;20139;-70
2023/08/14 11:00:55;;;;;;;1.50;1.08;;;27.10;57.40;;;;;;5076569;28;20099;-70
2023/08/14 11:03:21;;;;;;;1.20;1.10;;;27.10;57.40;;;;;;5075746;28;20032;-70
2023/08/14 11:05:47;;;;;;;1.30;1.10;;;27.20;57.40;;;;;;5077538;28;20041;-70
2023/08/14 11:08:14;;;;;;;1.10;0.93;;;27.20;57.50;;;;;;5063834;28;20058;-70
2023/08/14 11:10:41;;;;;;;1.20;1.00;;;27.20;57.50;;;;;;5063000;28;20119;-64
2023/08/14 11:13:10;;;;;;;1.63;1.08;;;27.20;57.50;;;;;;5077961;28;20119;-63
2023/08/14 11:15:39;;;;;;;1.33;1.00;;;27.20;57.50;;;;;;5077734;28;20108;-63
2023/08/14 11:18:09;;;;;;;1.30;1.20;;;27.20;57.40;;;;;;5078964;28;20490;-63
2023/08/14 11:20:37;;;;;;;1.15;1.00;;;27.20;57.40;;;;;;5076493;28;20115;-63
2023/08/14 11:23:03;;;;;;;1.40;1.10;;;27.20;57.50;;;;;;5083246;28;20399;-63
2023/08/14 11:25:30;;;;;;;1.00;0.90;;;27.20;57.50;;;;;;5061988;28;20044;-61
2023/08/14 11:27:56;;;;;;;1.13;1.00;;;27.20;57.50;;;;;;5083592;28;20039;-62
2023/08/14 11:30:23;;;;;;;1.20;1.10;;;27.20;57.40;;;;;;5081064;28;20102;-62
2023/08/14 11:32:53;;;;;;;1.30;1.00;;;27.20;57.50;;;;;;5081257;28;20111;-63
2023/08/14 11:35:19;;;;;;;1.02;0.93;;;27.20;57.50;;;;;;5080443;28;20027;-62
2023/08/14 11:37:46;;;;;;;0.95;0.90;;;27.20;57.40;;;;;;5081096;28;20024;-64
2023/08/14 11:40:15;;;;;;;0.93;0.90;;;27.20;57.40;;;;;;5082586;28;20104;-63
2023/08/14 11:42:42;;;;;;;1.13;0.90;;;27.20;57.40;;;;;;5080579;28;20090;-62
2023/08/14 11:45:08;;;;;;;1.38;1.00;;;27.30;57.50;;;;;;5079963;28;20036;-63
2023/08/14 11:47:36;;;;;;;1.20;1.00;;;27.20;57.50;;;;;;5080531;28;20039;-62
2023/08/14 11:50:07;;;;;;;1.30;0.98;;;27.30;57.50;;;;;;5080837;28;20442;-62
2023/08/14 11:52:34;;;;;;;1.50;1.10;;;27.30;57.50;;;;;;5078390;28;20143;-62
2023/08/14 11:55:00;;;;;;;1.08;0.90;;;27.30;57.40;;;;;;5078163;28;20064;-63
2023/08/14 11:57:27;;;;;;;1.52;1.08;;;27.30;57.40;;;;;;5081723;28;20024;-63
2023/08/14 11:59:54;;;;;;;1.00;0.90;;;27.30;58.00;;;;;;5080178;28;20100;-63
2023/08/14 12:02:20;;;;;;;1.23;1.10;;;27.30;57.40;;;;;;5080719;28;20029;-62
2023/08/14 12:05:00;;;;;;;0.75;0.73;;;27.30;57.40;;;;;;5080716;28;20578;-64
2023/08/14 12:07:26;;;;;;;1.60;1.10;;;27.30;57.50;;;;;;5080379;28;20028;-62
2023/08/14 12:09:56;;;;;;;1.10;1.00;;;27.30;57.40;;;;;;5081886;28;20181;-64
2023/08/14 12:12:23;;;;;;;1.50;1.00;;;27.30;57.40;;;;;;5080410;28;20102;-63
2023/08/14 12:14:50;;;;;;;1.25;1.10;;;27.30;57.40;;;;;;5080113;28;20031;-62
2023/08/14 12:17:18;;;;;;;1.20;1.00;;;27.30;57.40;;;;;;5080402;28;20050;-63
2023/08/14 12:19:57;;;;;;;1.20;0.95;;;27.30;57.40;;;;;;5079683;28;20443;-62
2023/08/14 12:22:27;;;;;;;1.20;0.95;;;27.30;57.40;;;;;;5065822;28;20024;-69
2023/08/14 12:24:53;;;;;;;1.48;1.00;;;27.40;57.50;;;;;;5080298;28;20107;-69
2023/08/14 12:27:24;;;;;;;1.13;0.90;;;27.40;57.40;;;;;;5080126;28;20020;-71
2023/08/14 12:29:51;;;;;;;1.42;1.00;;;27.30;57.40;;;;;;5082560;28;20077;-71
2023/08/14 12:32:18;;;;;;;0.85;0.80;;;27.40;57.40;;;;;;5081393;28;20046;-70
2023/08/14 12:34:43;;;;;;;1.10;0.90;;;27.40;57.40;;;;;;5080478;28;20487;-71
2023/08/14 12:37:12;;;;;;;1.15;0.90;;;27.40;57.40;;;;;;5077563;28;20032;-69
2023/08/14 12:39:38;;;;;;;0.90;0.80;;;27.40;57.40;;;;;;5083627;28;20016;-70
2023/08/14 12:42:04;;;;;;;1.08;0.90;;;27.40;57.30;;;;;;5080156;28;20021;-70
2023/08/14 12:44:30;;;;;;;1.17;0.90;;;27.40;57.30;;;;;;5078760;28;20495;-71
2023/08/14 12:46:56;;;;;;;1.35;0.95;;;27.40;57.80;;;;;;5080764;28;20055;-71